PWSweather.com
Personal Weather Stations
Station Observations

ChardChardGB

Lat: 50.877408, Lon: -2.94964741

Elevation: 341

Station Type: WS3083

http://www.merriott-astro.co.uk/weather/index.htm

High Low Average
Temperature 70.2°F21.2°C 58.1°F14.5°C 61.9°F16.6°C
Dew Point 61.8°F16.6°C 52.1°F11.2°C 58.2°F14.6°C
Winds 11.4 mph 18.3 kmh 1.4 mph 2.3 kmh 7.0 mph SSW11.3 kmh SSW
Wind Gusts 15.9 mph25.6 kmh 3.1 mph5.0 kmh 10.0 mph16.1 kmh
Humidity 100% 57% 89%
Pressure 29.02 in982.7 mb 28.86 in977.3 mb -
Precipitation 1.10 in27.9 mm - -
Hour Temp Dew Point Humidity Winds Wind Gusts Pressure Precip Precip Rate Daily Precip Total
12:00 AM 61.7°F16.5°C 61.4°F16.3°C 99% 6.4 mph SSW10.3 kmh SSW 10.7 mph17.2 kmh 29.02 in982.7 mb 0.06 in1.5 mm 0.00 in0.0 mm 0.06 in1.5 mm
12:10 AM 61.7°F16.5°C 61.4°F16.3°C 99% 8.5 mph SW13.7 kmh SW 12.1 mph19.5 kmh 29.02 in982.7 mb 0.06 in1.5 mm 0.00 in0.0 mm 0.06 in1.5 mm
12:20 AM 61.7°F16.5°C 61.4°F16.3°C 99% 7.4 mph SSW11.9 kmh SSW 9.8 mph15.8 kmh 29.01 in982.4 mb 0.06 in1.5 mm 0.00 in0.0 mm 0.06 in1.5 mm
12:30 AM 61.7°F16.5°C 61.4°F16.3°C 99% 9.9 mph SW15.9 kmh SW 15.2 mph24.5 kmh 29.02 in982.7 mb 0.06 in1.5 mm 0.00 in0.0 mm 0.06 in1.5 mm
12:40 AM 61.7°F16.5°C 61.4°F16.3°C 99% 7.4 mph S11.9 kmh S 10.7 mph17.2 kmh 29.01 in982.4 mb 0.06 in1.5 mm 0.00 in0.0 mm 0.06 in1.5 mm
12:50 AM 61.7°F16.5°C 61.4°F16.3°C 99% 9.5 mph SSW15.3 kmh SSW 15.2 mph24.5 kmh 29.00 in982.1 mb 0.05 in1.3 mm 0.00 in0.0 mm 0.06 in1.5 mm
01:00 AM 61.7°F16.5°C 61.4°F16.3°C 99% 7.9 mph S12.7 kmh S 12.1 mph19.5 kmh 29.00 in982.1 mb 0.00 in0.0 mm 0.00 in0.0 mm 0.06 in1.5 mm
01:10 AM 61.7°F16.5°C 61.4°F16.3°C 99% 5.6 mph SSW9.0 kmh SSW 9.2 mph14.8 kmh 29.00 in982.1 mb 0.00 in0.0 mm 0.00 in0.0 mm 0.06 in1.5 mm
01:20 AM 61.9°F16.6°C 61.6°F16.4°C 99% 7.1 mph S11.4 kmh S 12.1 mph19.5 kmh 29.00 in982.1 mb 0.00 in0.0 mm 0.00 in0.0 mm 0.06 in1.5 mm
01:30 AM 61.9°F16.6°C 61.6°F16.4°C 99% 8.8 mph SSW14.2 kmh SSW 12.1 mph19.5 kmh 28.99 in981.7 mb 0.00 in0.0 mm 0.00 in0.0 mm 0.06 in1.5 mm
01:40 AM 62.1°F16.7°C 61.8°F16.6°C 99% 8.1 mph SSW13.0 kmh SSW 13.0 mph20.9 kmh 28.98 in981.4 mb 0.00 in0.0 mm 0.00 in0.0 mm 0.06 in1.5 mm
01:50 AM 62.1°F16.7°C 61.8°F16.6°C 99% 5.9 mph SW9.5 kmh SW 7.6 mph12.2 kmh 28.98 in981.4 mb 0.06 in1.5 mm 0.36 in9.1 mm 0.06 in1.5 mm
02:00 AM 62.1°F16.7°C 61.8°F16.6°C 99% 9.7 mph SSW15.6 kmh SSW 15.9 mph25.6 kmh 28.97 in981.0 mb 0.08 in2.0 mm 0.02 in0.5 mm 0.08 in2.0 mm
02:10 AM 62.1°F16.7°C 61.8°F16.6°C 99% 6.7 mph SW10.8 kmh SW 8.3 mph13.4 kmh 28.96 in980.7 mb 0.17 in4.3 mm 0.54 in13.7 mm 0.17 in4.3 mm
02:20 AM 61.9°F16.6°C 61.6°F16.4°C 99% 5.6 mph S9.0 kmh S 8.3 mph13.4 kmh 28.97 in981.0 mb 0.24 in6.1 mm 0.42 in10.7 mm 0.24 in6.1 mm
02:30 AM 61.9°F16.6°C 61.6°F16.4°C 99% 4.3 mph SSW6.9 kmh SSW 6.9 mph11.1 kmh 28.95 in980.4 mb 0.30 in7.6 mm 0.36 in9.1 mm 0.30 in7.6 mm
02:40 AM 61.9°F16.6°C 61.6°F16.4°C 99% 3.7 mph SW6.0 kmh SW 5.4 mph8.7 kmh 28.95 in980.4 mb 0.37 in9.4 mm 0.42 in10.7 mm 0.37 in9.4 mm
02:50 AM 61.7°F16.5°C 61.4°F16.3°C 99% 7.0 mph SSW11.3 kmh SSW 8.3 mph13.4 kmh 28.94 in980.0 mb 0.37 in9.4 mm 0.00 in0.0 mm 0.43 in10.9 mm
03:00 AM 61.5°F16.4°C 61.3°F16.3°C 99% 5.9 mph S9.5 kmh S 8.3 mph13.4 kmh 28.94 in980.0 mb 0.38 in9.7 mm 0.01 in0.3 mm 0.46 in11.7 mm
03:10 AM 61.7°F16.5°C 61.4°F16.3°C 99% 10.7 mph S17.2 kmh S 14.5 mph23.3 kmh 28.93 in979.7 mb 0.28 in7.1 mm 0.00 in0.0 mm 0.46 in11.7 mm
03:20 AM 61.5°F16.4°C 61.3°F16.3°C 99% 11.4 mph S18.3 kmh S 15.2 mph24.5 kmh 28.93 in979.7 mb 0.22 in5.6 mm 0.00 in0.0 mm 0.46 in11.7 mm
03:30 AM 61.3°F16.3°C 61.1°F16.2°C 99% 9.4 mph SSW15.1 kmh SSW 12.1 mph19.5 kmh 28.93 in979.7 mb 0.18 in4.6 mm 0.00 in0.0 mm 0.47 in11.9 mm
03:40 AM 61.0°F16.1°C 60.7°F15.9°C 99% 8.3 mph S13.4 kmh S 11.4 mph18.3 kmh 28.93 in979.7 mb 0.14 in3.6 mm 0.00 in0.0 mm 0.51 in13.0 mm
03:50 AM 60.8°F16.0°C 60.5°F15.8°C 99% 8.6 mph SSW13.8 kmh SSW 11.4 mph18.3 kmh 28.93 in979.7 mb 0.12 in3.0 mm 0.00 in0.0 mm 0.54 in13.7 mm
04:00 AM 61.0°F16.1°C 60.7°F15.9°C 99% 7.5 mph S12.1 kmh S 9.8 mph15.8 kmh 28.92 in979.3 mb 0.11 in2.8 mm 0.00 in0.0 mm 0.57 in14.5 mm
04:10 AM 61.0°F16.1°C 60.7°F15.9°C 99% 7.1 mph S11.4 kmh S 9.8 mph15.8 kmh 28.90 in978.7 mb 0.14 in3.6 mm 0.18 in4.6 mm 0.60 in15.2 mm
04:20 AM 60.8°F16.0°C 60.5°F15.8°C 99% 4.9 mph S7.9 kmh S 9.8 mph15.8 kmh 28.90 in978.7 mb 0.17 in4.3 mm 0.18 in4.6 mm 0.63 in16.0 mm
04:30 AM 61.0°F16.1°C 60.7°F15.9°C 99% 5.0 mph S8.0 kmh S 9.2 mph14.8 kmh 28.89 in978.3 mb 0.19 in4.8 mm 0.12 in3.0 mm 0.66 in16.8 mm
04:40 AM 61.5°F16.4°C 61.3°F16.3°C 99% 7.3 mph S11.7 kmh S 9.8 mph15.8 kmh 28.88 in978.0 mb 0.19 in4.8 mm 0.00 in0.0 mm 0.70 in17.8 mm
04:50 AM 61.7°F16.5°C 61.4°F16.3°C 99% 6.6 mph SSE10.6 kmh SSE 8.3 mph13.4 kmh 28.86 in977.3 mb 0.19 in4.8 mm 0.00 in0.0 mm 0.73 in18.5 mm
05:00 AM 61.9°F16.6°C 61.6°F16.4°C 99% 6.6 mph SSW10.6 kmh SSW 11.4 mph18.3 kmh 28.88 in978.0 mb 0.20 in5.1 mm 0.01 in0.3 mm 0.77 in19.6 mm
05:10 AM 61.5°F16.4°C 61.3°F16.3°C 99% 8.2 mph S13.2 kmh S 15.9 mph25.6 kmh 28.88 in978.0 mb 0.18 in4.6 mm 0.00 in0.0 mm 0.79 in20.1 mm
05:20 AM 61.0°F16.1°C 60.7°F15.9°C 99% 10.4 mph S16.7 kmh S 14.5 mph23.3 kmh 28.88 in978.0 mb 0.18 in4.6 mm 0.00 in0.0 mm 0.80 in20.3 mm
05:30 AM 60.6°F15.9°C 60.4°F15.8°C 99% 7.5 mph S12.1 kmh S 9.2 mph14.8 kmh 28.88 in978.0 mb 0.14 in3.6 mm 0.00 in0.0 mm 0.80 in20.3 mm
05:40 AM 60.6°F15.9°C 60.4°F15.8°C 99% 6.6 mph S10.6 kmh S 9.8 mph15.8 kmh 28.88 in978.0 mb 0.09 in2.3 mm 0.00 in0.0 mm 0.80 in20.3 mm
05:50 AM 60.6°F15.9°C 60.4°F15.8°C 99% 5.6 mph S9.0 kmh S 7.6 mph12.2 kmh 28.87 in977.7 mb 0.14 in3.6 mm 0.30 in7.6 mm 0.87 in22.1 mm
06:00 AM 60.6°F15.9°C 60.4°F15.8°C 99% 1.4 mph S2.3 kmh S 3.1 mph5.0 kmh 28.87 in977.7 mb 0.13 in3.3 mm 0.00 in0.0 mm 0.90 in22.9 mm
06:10 AM 60.8°F16.0°C 60.5°F15.8°C 99% 2.5 mph SW4.0 kmh SW 3.8 mph6.1 kmh 28.86 in977.3 mb 0.13 in3.3 mm 0.00 in0.0 mm 0.92 in23.4 mm
06:20 AM 61.2°F16.2°C 60.9°F16.1°C 99% 4.7 mph S7.6 kmh S 6.9 mph11.1 kmh 28.86 in977.3 mb 0.13 in3.3 mm 0.00 in0.0 mm 0.93 in23.6 mm
06:30 AM 61.3°F16.3°C 61.1°F16.2°C 99% 7.4 mph S11.9 kmh S 10.7 mph17.2 kmh 28.86 in977.3 mb 0.13 in3.3 mm 0.00 in0.0 mm 0.93 in23.6 mm
06:40 AM 61.3°F16.3°C 61.1°F16.2°C 99% 7.3 mph SSW11.7 kmh SSW 9.2 mph14.8 kmh 28.86 in977.3 mb 0.13 in3.3 mm 0.00 in0.0 mm 0.93 in23.6 mm
06:50 AM 61.3°F16.3°C 61.1°F16.2°C 99% 8.1 mph SW13.0 kmh SW 9.8 mph15.8 kmh 28.87 in977.7 mb 0.05 in1.3 mm 0.00 in0.0 mm 0.93 in23.6 mm
07:00 AM 61.3°F16.3°C 61.1°F16.2°C 99% 6.1 mph S9.8 kmh S 8.3 mph13.4 kmh 28.86 in977.3 mb 0.04 in1.0 mm 0.00 in0.0 mm 0.93 in23.6 mm
07:10 AM 61.3°F16.3°C 61.1°F16.2°C 99% 4.3 mph SSW6.9 kmh SSW 8.3 mph13.4 kmh 28.87 in977.7 mb 0.01 in0.3 mm 0.00 in0.0 mm 0.93 in23.6 mm
07:20 AM 61.5°F16.4°C 61.3°F16.3°C 99% 5.2 mph S8.4 kmh S 6.9 mph11.1 kmh 28.87 in977.7 mb 0.00 in0.0 mm 0.00 in0.0 mm 0.93 in23.6 mm
07:30 AM 61.3°F16.3°C 61.1°F16.2°C 99% 6.3 mph SW10.1 kmh SW 9.8 mph15.8 kmh 28.87 in977.7 mb 0.02 in0.5 mm 0.12 in3.0 mm 0.96 in24.4 mm
07:40 AM 60.8°F16.0°C 60.5°F15.8°C 99% 4.8 mph S7.7 kmh S 7.6 mph12.2 kmh 28.87 in977.7 mb 0.06 in1.5 mm 0.24 in6.1 mm 0.99 in25.1 mm
07:50 AM 60.3°F15.7°C 59.1°F15.1°C 96% 6.7 mph SSW10.8 kmh SSW 10.7 mph17.2 kmh 28.87 in977.7 mb 0.07 in1.8 mm 0.06 in1.5 mm 1.00 in25.4 mm
08:00 AM 59.9°F15.5°C 58.5°F14.7°C 95% 4.3 mph S6.9 kmh S 6.9 mph11.1 kmh 28.88 in978.0 mb 0.07 in1.8 mm 0.00 in0.0 mm 1.00 in25.4 mm
08:10 AM 60.1°F15.6°C 59.0°F15.0°C 96% 4.0 mph SSW6.4 kmh SSW 6.0 mph9.7 kmh 28.88 in978.0 mb 0.07 in1.8 mm 0.00 in0.0 mm 1.00 in25.4 mm
08:20 AM 60.3°F15.7°C 59.1°F15.1°C 96% 6.1 mph S9.8 kmh S 12.1 mph19.5 kmh 28.88 in978.0 mb 0.07 in1.8 mm 0.00 in0.0 mm 1.00 in25.4 mm
08:30 AM 60.4°F15.8°C 59.0°F15.0°C 95% 6.1 mph N9.8 kmh N 7.6 mph12.2 kmh 28.88 in978.0 mb 0.05 in1.3 mm 0.00 in0.0 mm 1.00 in25.4 mm
08:40 AM 60.6°F15.9°C 58.6°F14.8°C 93% 6.4 mph SE10.3 kmh SE 11.4 mph18.3 kmh 28.89 in978.3 mb 0.01 in0.3 mm 0.00 in0.0 mm 1.00 in25.4 mm
08:50 AM 61.2°F16.2°C 58.8°F14.9°C 92% 6.7 mph WSW10.8 kmh WSW 9.8 mph15.8 kmh 28.89 in978.3 mb 0.00 in0.0 mm 0.00 in0.0 mm 1.00 in25.4 mm
09:00 AM 61.9°F16.6°C 58.9°F14.9°C 90% 5.9 mph SW9.5 kmh SW 9.2 mph14.8 kmh 28.90 in978.7 mb 0.00 in0.0 mm 0.00 in0.0 mm 1.00 in25.4 mm
09:10 AM 62.1°F16.7°C 58.5°F14.7°C 88% 5.4 mph WSW8.7 kmh WSW 9.8 mph15.8 kmh 28.90 in978.7 mb 0.00 in0.0 mm 0.00 in0.0 mm 1.00 in25.4 mm
09:20 AM 62.2°F16.8°C 58.0°F14.4°C 86% 5.8 mph SW9.3 kmh SW 9.8 mph15.8 kmh 28.90 in978.7 mb 0.00 in0.0 mm 0.00 in0.0 mm 1.00 in25.4 mm
09:30 AM 62.4°F16.9°C 58.5°F14.7°C 87% 5.2 mph SSW8.4 kmh SSW 8.3 mph13.4 kmh 28.91 in979.0 mb 0.00 in0.0 mm 0.00 in0.0 mm 1.00 in25.4 mm
09:40 AM 63.9°F17.7°C 58.3°F14.6°C 82% 5.9 mph W9.5 kmh W 10.7 mph17.2 kmh 28.91 in979.0 mb 0.00 in0.0 mm 0.00 in0.0 mm 1.00 in25.4 mm
09:50 AM 63.9°F17.7°C 56.9°F13.8°C 78% 7.0 mph SSW11.3 kmh SSW 9.8 mph15.8 kmh 28.91 in979.0 mb 0.00 in0.0 mm 0.00 in0.0 mm 1.00 in25.4 mm
10:00 AM 64.9°F18.3°C 57.6°F14.2°C 77% 6.1 mph WNW9.8 kmh WNW 8.3 mph13.4 kmh 28.92 in979.3 mb 0.00 in0.0 mm 0.00 in0.0 mm 1.00 in25.4 mm
10:10 AM 64.9°F18.3°C 56.1°F13.4°C 73% 8.5 mph WSW13.7 kmh WSW 13.0 mph20.9 kmh 28.92 in979.3 mb 0.00 in0.0 mm 0.00 in0.0 mm 1.00 in25.4 mm
10:20 AM 65.5°F18.6°C 56.6°F13.7°C 73% 8.5 mph W13.7 kmh W 11.4 mph18.3 kmh 28.92 in979.3 mb 0.00 in0.0 mm 0.00 in0.0 mm 1.00 in25.4 mm
10:30 AM 65.1°F18.4°C 56.3°F13.5°C 73% 7.1 mph SSW11.4 kmh SSW 10.7 mph17.2 kmh 28.92 in979.3 mb 0.01 in0.3 mm 0.06 in1.5 mm 1.02 in25.9 mm
10:40 AM 65.7°F18.7°C 56.4°F13.6°C 72% 6.6 mph NW10.6 kmh NW 8.3 mph13.4 kmh 28.92 in979.3 mb 0.01 in0.3 mm 0.00 in0.0 mm 1.02 in25.9 mm
10:50 AM 66.4°F19.1°C 56.7°F13.7°C 71% 5.7 mph ESE9.2 kmh ESE 8.3 mph13.4 kmh 28.92 in979.3 mb 0.01 in0.3 mm 0.00 in0.0 mm 1.02 in25.9 mm
11:00 AM 67.5°F19.7°C 57.8°F14.3°C 71% 7.6 mph SSW12.2 kmh SSW 10.7 mph17.2 kmh 28.92 in979.3 mb 0.01 in0.3 mm 0.00 in0.0 mm 1.02 in25.9 mm
11:10 AM 67.1°F19.5°C 55.4°F13.0°C 66% 6.0 mph NW9.7 kmh NW 9.8 mph15.8 kmh 28.92 in979.3 mb 0.01 in0.3 mm 0.00 in0.0 mm 1.02 in25.9 mm
11:20 AM 66.6°F19.2°C 56.5°F13.6°C 70% 4.4 mph NE7.1 kmh NE 6.9 mph11.1 kmh 28.92 in979.3 mb 0.01 in0.3 mm 0.00 in0.0 mm 1.02 in25.9 mm
11:30 AM 67.5°F19.7°C 57.4°F14.1°C 70% 5.3 mph WSW8.5 kmh WSW 9.2 mph14.8 kmh 28.92 in979.3 mb 0.00 in0.0 mm 0.00 in0.0 mm 1.02 in25.9 mm
11:40 AM 67.3°F19.6°C 56.4°F13.6°C 68% 7.6 mph SW12.2 kmh SW 11.4 mph18.3 kmh 28.92 in979.3 mb 0.00 in0.0 mm 0.00 in0.0 mm 1.02 in25.9 mm
11:50 AM 68.0°F20.0°C 57.5°F14.2°C 69% 6.4 mph WSW10.3 kmh WSW 8.3 mph13.4 kmh 28.92 in979.3 mb 0.00 in0.0 mm 0.00 in0.0 mm 1.02 in25.9 mm
12:00 PM 67.8°F19.9°C 56.5°F13.6°C 67% 8.0 mph W12.9 kmh W 12.1 mph19.5 kmh 28.92 in979.3 mb 0.00 in0.0 mm 0.00 in0.0 mm 1.02 in25.9 mm
12:10 PM 70.2°F21.2°C 57.4°F14.1°C 64% 7.1 mph WNW11.4 kmh WNW 14.5 mph23.3 kmh 28.92 in979.3 mb 0.00 in0.0 mm 0.00 in0.0 mm 1.02 in25.9 mm
12:20 PM 70.0°F21.1°C 56.8°F13.8°C 63% 8.3 mph NW13.4 kmh NW 11.4 mph18.3 kmh 28.93 in979.7 mb 0.00 in0.0 mm 0.00 in0.0 mm 1.02 in25.9 mm
12:30 PM 68.0°F20.0°C 55.0°F12.8°C 63% 6.8 mph W10.9 kmh W 9.2 mph14.8 kmh 28.93 in979.7 mb 0.00 in0.0 mm 0.00 in0.0 mm 1.02 in25.9 mm
12:40 PM 67.8°F19.9°C 52.1°F11.2°C 57% 9.5 mph NW15.3 kmh NW 13.0 mph20.9 kmh 28.92 in979.3 mb 0.00 in0.0 mm 0.00 in0.0 mm 1.02 in25.9 mm
12:50 PM 68.9°F20.5°C 54.0°F12.2°C 59% 7.9 mph SW12.7 kmh SW 10.7 mph17.2 kmh 28.93 in979.7 mb 0.00 in0.0 mm 0.00 in0.0 mm 1.02 in25.9 mm
01:00 PM 68.9°F20.5°C 53.5°F11.9°C 58% 8.0 mph S12.9 kmh S 11.4 mph18.3 kmh 28.92 in979.3 mb 0.00 in0.0 mm 0.00 in0.0 mm 1.02 in25.9 mm
01:10 PM 69.6°F20.9°C 54.2°F12.3°C 58% 8.5 mph SW13.7 kmh SW 10.7 mph17.2 kmh 28.92 in979.3 mb 0.00 in0.0 mm 0.00 in0.0 mm 1.02 in25.9 mm
01:20 PM 70.0°F21.1°C 55.5°F13.1°C 60% 7.8 mph SW12.6 kmh SW 11.4 mph18.3 kmh 28.93 in979.7 mb 0.00 in0.0 mm 0.00 in0.0 mm 1.02 in25.9 mm
01:30 PM 68.7°F20.4°C 53.4°F11.9°C 58% 7.3 mph SSW11.7 kmh SSW 12.1 mph19.5 kmh 28.93 in979.7 mb 0.00 in0.0 mm 0.00 in0.0 mm 1.02 in25.9 mm
01:40 PM 66.9°F19.4°C 53.5°F11.9°C 62% 6.9 mph WSW11.1 kmh WSW 10.7 mph17.2 kmh 28.93 in979.7 mb 0.00 in0.0 mm 0.00 in0.0 mm 1.02 in25.9 mm
01:50 PM 65.8°F18.8°C 53.8°F12.1°C 65% 6.5 mph SW10.5 kmh SW 9.8 mph15.8 kmh 28.93 in979.7 mb 0.00 in0.0 mm 0.00 in0.0 mm 1.02 in25.9 mm
02:00 PM 65.8°F18.8°C 53.8°F12.1°C 65% 5.7 mph SW9.2 kmh SW 7.6 mph12.2 kmh 28.92 in979.3 mb 0.00 in0.0 mm 0.00 in0.0 mm 1.02 in25.9 mm
02:10 PM 66.4°F19.1°C 56.3°F13.5°C 70% 5.6 mph SW9.0 kmh SW 9.2 mph14.8 kmh 28.93 in979.7 mb 0.00 in0.0 mm 0.00 in0.0 mm 1.02 in25.9 mm
02:20 PM 67.6°F19.8°C 57.5°F14.2°C 70% 6.4 mph S10.3 kmh S 9.2 mph14.8 kmh 28.92 in979.3 mb 0.00 in0.0 mm 0.00 in0.0 mm 1.02 in25.9 mm
02:30 PM 67.3°F19.6°C 56.0°F13.3°C 67% 5.8 mph SW9.3 kmh SW 9.8 mph15.8 kmh 28.92 in979.3 mb 0.00 in0.0 mm 0.00 in0.0 mm 1.02 in25.9 mm
02:40 PM 66.6°F19.2°C 54.5°F12.5°C 65% 5.8 mph SW9.3 kmh SW 9.2 mph14.8 kmh 28.93 in979.7 mb 0.00 in0.0 mm 0.00 in0.0 mm 1.02 in25.9 mm
02:50 PM 65.5°F18.6°C 55.1°F12.8°C 69% 8.2 mph SW13.2 kmh SW 13.0 mph20.9 kmh 28.92 in979.3 mb 0.00 in0.0 mm 0.00 in0.0 mm 1.02 in25.9 mm
03:00 PM 64.6°F18.1°C 55.0°F12.8°C 71% 7.1 mph SSW11.4 kmh SSW 9.8 mph15.8 kmh 28.93 in979.7 mb 0.00 in0.0 mm 0.00 in0.0 mm 1.02 in25.9 mm
03:10 PM 64.6°F18.1°C 54.6°F12.6°C 70% 8.5 mph S13.7 kmh S 11.4 mph18.3 kmh 28.93 in979.7 mb 0.00 in0.0 mm 0.00 in0.0 mm 1.02 in25.9 mm
03:20 PM 64.6°F18.1°C 54.6°F12.6°C 70% 6.4 mph ESE10.3 kmh ESE 9.2 mph14.8 kmh 28.93 in979.7 mb 0.00 in0.0 mm 0.00 in0.0 mm 1.02 in25.9 mm
03:30 PM 64.4°F18.0°C 54.8°F12.7°C 71% 6.2 mph SW10.0 kmh SW 8.3 mph13.4 kmh 28.92 in979.3 mb 0.00 in0.0 mm 0.00 in0.0 mm 1.02 in25.9 mm
03:40 PM 63.9°F17.7°C 54.7°F12.6°C 72% 7.6 mph SSE12.2 kmh SSE 9.8 mph15.8 kmh 28.93 in979.7 mb 0.00 in0.0 mm 0.00 in0.0 mm 1.02 in25.9 mm
03:50 PM 62.8°F17.1°C 56.5°F13.6°C 80% 5.4 mph SW8.7 kmh SW 8.3 mph13.4 kmh 28.93 in979.7 mb 0.00 in0.0 mm 0.00 in0.0 mm 1.02 in25.9 mm
04:00 PM 61.9°F16.6°C 56.7°F13.7°C 83% 4.9 mph SSW7.9 kmh SSW 8.3 mph13.4 kmh 28.93 in979.7 mb 0.00 in0.0 mm 0.00 in0.0 mm 1.02 in25.9 mm
04:10 PM 61.3°F16.3°C 56.8°F13.8°C 85% 5.6 mph S9.0 kmh S 9.2 mph14.8 kmh 28.93 in979.7 mb 0.00 in0.0 mm 0.00 in0.0 mm 1.02 in25.9 mm
04:20 PM 61.0°F16.1°C 56.1°F13.4°C 84% 7.3 mph SW11.7 kmh SW 10.7 mph17.2 kmh 28.93 in979.7 mb 0.00 in0.0 mm 0.00 in0.0 mm 1.02 in25.9 mm
04:30 PM 60.6°F15.9°C 56.1°F13.4°C 85% 5.4 mph SW8.7 kmh SW 9.8 mph15.8 kmh 28.93 in979.7 mb 0.00 in0.0 mm 0.00 in0.0 mm 1.02 in25.9 mm
04:40 PM 60.3°F15.7°C 56.7°F13.7°C 88% 4.7 mph S7.6 kmh S 6.0 mph9.7 kmh 28.93 in979.7 mb 0.01 in0.3 mm 0.06 in1.5 mm 1.03 in26.2 mm
04:50 PM 59.9°F15.5°C 57.0°F13.9°C 90% 5.1 mph S8.2 kmh S 9.2 mph14.8 kmh 28.93 in979.7 mb 0.01 in0.3 mm 0.00 in0.0 mm 1.03 in26.2 mm
05:00 PM 59.7°F15.4°C 56.8°F13.8°C 90% 6.6 mph SSW10.6 kmh SSW 9.2 mph14.8 kmh 28.93 in979.7 mb 0.01 in0.3 mm 0.00 in0.0 mm 1.03 in26.2 mm
05:10 PM 59.5°F15.3°C 56.9°F13.8°C 91% 7.1 mph SSW11.4 kmh SSW 8.3 mph13.4 kmh 28.93 in979.7 mb 0.01 in0.3 mm 0.00 in0.0 mm 1.03 in26.2 mm
05:20 PM 59.4°F15.2°C 57.0°F13.9°C 92% 7.2 mph S11.6 kmh S 10.7 mph17.2 kmh 28.93 in979.7 mb 0.01 in0.3 mm 0.00 in0.0 mm 1.03 in26.2 mm
05:30 PM 59.2°F15.1°C 57.2°F14.0°C 93% 6.6 mph SSE10.6 kmh SSE 13.0 mph20.9 kmh 28.93 in979.7 mb 0.02 in0.5 mm 0.06 in1.5 mm 1.04 in26.4 mm
05:40 PM 59.0°F15.0°C 57.3°F14.1°C 94% 7.5 mph SW12.1 kmh SW 10.7 mph17.2 kmh 28.93 in979.7 mb 0.01 in0.3 mm 0.00 in0.0 mm 1.04 in26.4 mm
05:50 PM 58.8°F14.9°C 57.4°F14.1°C 95% 6.5 mph SSW10.5 kmh SSW 9.2 mph14.8 kmh 28.93 in979.7 mb 0.01 in0.3 mm 0.00 in0.0 mm 1.04 in26.4 mm
06:00 PM 58.8°F14.9°C 57.7°F14.3°C 96% 5.9 mph S9.5 kmh S 9.2 mph14.8 kmh 28.94 in980.0 mb 0.02 in0.5 mm 0.01 in0.3 mm 1.05 in26.7 mm
06:10 PM 58.6°F14.8°C 57.5°F14.2°C 96% 5.5 mph S8.9 kmh S 6.9 mph11.1 kmh 28.93 in979.7 mb 0.02 in0.5 mm 0.00 in0.0 mm 1.05 in26.7 mm
06:20 PM 58.6°F14.8°C 57.5°F14.2°C 96% 5.3 mph SSW8.5 kmh SSW 7.6 mph12.2 kmh 28.93 in979.7 mb 0.02 in0.5 mm 0.00 in0.0 mm 1.05 in26.7 mm
06:30 PM 58.5°F14.7°C 57.3°F14.1°C 96% 5.9 mph S9.5 kmh S 8.3 mph13.4 kmh 28.94 in980.0 mb 0.01 in0.3 mm 0.00 in0.0 mm 1.05 in26.7 mm
06:40 PM 58.5°F14.7°C 57.6°F14.2°C 97% 5.2 mph S8.4 kmh S 8.3 mph13.4 kmh 28.93 in979.7 mb 0.01 in0.3 mm 0.00 in0.0 mm 1.05 in26.7 mm
06:50 PM 58.6°F14.8°C 58.7°F14.8°C 100% 4.5 mph S7.2 kmh S 8.3 mph13.4 kmh 28.94 in980.0 mb 0.01 in0.3 mm 0.00 in0.0 mm 1.05 in26.7 mm
07:00 PM 58.6°F14.8°C 57.8°F14.3°C 97% 7.1 mph SW11.4 kmh SW 11.4 mph18.3 kmh 28.93 in979.7 mb 0.00 in0.0 mm 0.00 in0.0 mm 1.05 in26.7 mm
07:10 PM 58.5°F14.7°C 57.3°F14.1°C 96% 6.8 mph S10.9 kmh S 9.8 mph15.8 kmh 28.94 in980.0 mb 0.00 in0.0 mm 0.00 in0.0 mm 1.05 in26.7 mm
07:20 PM 58.5°F14.7°C 57.0°F13.9°C 95% 5.1 mph S8.2 kmh S 8.3 mph13.4 kmh 28.93 in979.7 mb 0.00 in0.0 mm 0.00 in0.0 mm 1.05 in26.7 mm
07:30 PM 58.5°F14.7°C 57.0°F13.9°C 95% 5.5 mph SSW8.9 kmh SSW 7.6 mph12.2 kmh 28.95 in980.4 mb 0.00 in0.0 mm 0.00 in0.0 mm 1.05 in26.7 mm
07:40 PM 58.5°F14.7°C 56.8°F13.8°C 94% 5.1 mph S8.2 kmh S 9.8 mph15.8 kmh 28.94 in980.0 mb 0.00 in0.0 mm 0.00 in0.0 mm 1.05 in26.7 mm
07:50 PM 58.5°F14.7°C 56.8°F13.8°C 94% 5.5 mph S8.9 kmh S 13.0 mph20.9 kmh 28.94 in980.0 mb 0.00 in0.0 mm 0.00 in0.0 mm 1.05 in26.7 mm
08:00 PM 58.5°F14.7°C 56.8°F13.8°C 94% 5.8 mph SSW9.3 kmh SSW 8.3 mph13.4 kmh 28.95 in980.4 mb 0.00 in0.0 mm 0.00 in0.0 mm 1.05 in26.7 mm
08:10 PM 58.5°F14.7°C 56.8°F13.8°C 94% 5.3 mph S8.5 kmh S 9.2 mph14.8 kmh 28.95 in980.4 mb 0.00 in0.0 mm 0.00 in0.0 mm 1.05 in26.7 mm
08:20 PM 58.3°F14.6°C 56.9°F13.8°C 95% 3.7 mph SSW6.0 kmh SSW 6.0 mph9.7 kmh 28.94 in980.0 mb 0.00 in0.0 mm 0.00 in0.0 mm 1.05 in26.7 mm
08:30 PM 58.5°F14.7°C 57.0°F13.9°C 95% 5.8 mph SSW9.3 kmh SSW 8.3 mph13.4 kmh 28.94 in980.0 mb 0.00 in0.0 mm 0.00 in0.0 mm 1.05 in26.7 mm
08:40 PM 58.5°F14.7°C 57.0°F13.9°C 95% 7.4 mph SSW11.9 kmh SSW 11.4 mph18.3 kmh 28.94 in980.0 mb 0.00 in0.0 mm 0.00 in0.0 mm 1.05 in26.7 mm
08:50 PM 58.5°F14.7°C 57.0°F13.9°C 95% 8.7 mph SSW14.0 kmh SSW 12.1 mph19.5 kmh 28.93 in979.7 mb 0.00 in0.0 mm 0.00 in0.0 mm 1.05 in26.7 mm
09:00 PM 58.5°F14.7°C 57.0°F13.9°C 95% 6.3 mph SW10.1 kmh SW 6.9 mph11.1 kmh 28.93 in979.7 mb 0.00 in0.0 mm 0.00 in0.0 mm 1.05 in26.7 mm
09:10 PM 58.5°F14.7°C 56.8°F13.8°C 94% 6.6 mph SSW10.6 kmh SSW 9.2 mph14.8 kmh 28.93 in979.7 mb 0.00 in0.0 mm 0.00 in0.0 mm 1.05 in26.7 mm
09:20 PM 58.5°F14.7°C 56.5°F13.6°C 93% 6.4 mph SW10.3 kmh SW 13.6 mph21.9 kmh 28.93 in979.7 mb 0.00 in0.0 mm 0.00 in0.0 mm 1.05 in26.7 mm
09:30 PM 58.5°F14.7°C 56.5°F13.6°C 93% 6.0 mph S9.7 kmh S 9.2 mph14.8 kmh 28.92 in979.3 mb 0.00 in0.0 mm 0.00 in0.0 mm 1.05 in26.7 mm
09:40 PM 58.5°F14.7°C 56.8°F13.8°C 94% 9.7 mph S15.6 kmh S 15.2 mph24.5 kmh 28.92 in979.3 mb 0.01 in0.3 mm 0.06 in1.5 mm 1.06 in26.9 mm
09:50 PM 58.3°F14.6°C 56.6°F13.7°C 94% 8.0 mph SW12.9 kmh SW 10.7 mph17.2 kmh 28.91 in979.0 mb 0.02 in0.5 mm 0.06 in1.5 mm 1.07 in27.2 mm
10:00 PM 58.1°F14.5°C 57.0°F13.9°C 96% 7.9 mph SE12.7 kmh SE 10.7 mph17.2 kmh 28.91 in979.0 mb 0.02 in0.5 mm 0.00 in0.0 mm 1.07 in27.2 mm
10:10 PM 58.1°F14.5°C 57.3°F14.1°C 97% 8.3 mph S13.4 kmh S 10.7 mph17.2 kmh 28.92 in979.3 mb 0.02 in0.5 mm 0.00 in0.0 mm 1.07 in27.2 mm
10:20 PM 58.1°F14.5°C 57.3°F14.1°C 97% 9.2 mph SSW14.8 kmh SSW 12.1 mph19.5 kmh 28.91 in979.0 mb 0.02 in0.5 mm 0.00 in0.0 mm 1.07 in27.2 mm
10:30 PM 58.1°F14.5°C 57.3°F14.1°C 97% 8.8 mph SSW14.2 kmh SSW 13.6 mph21.9 kmh 28.90 in978.7 mb 0.02 in0.5 mm 0.00 in0.0 mm 1.07 in27.2 mm
10:40 PM 58.3°F14.6°C 57.2°F14.0°C 96% 8.4 mph S13.5 kmh S 13.0 mph20.9 kmh 28.89 in978.3 mb 0.01 in0.3 mm 0.00 in0.0 mm 1.07 in27.2 mm
10:50 PM 58.3°F14.6°C 57.2°F14.0°C 96% 9.3 mph S15.0 kmh S 13.0 mph20.9 kmh 28.89 in978.3 mb 0.00 in0.0 mm 0.00 in0.0 mm 1.07 in27.2 mm
11:00 PM 58.3°F14.6°C 57.4°F14.1°C 97% 9.2 mph S14.8 kmh S 13.6 mph21.9 kmh 28.89 in978.3 mb 0.00 in0.0 mm 0.00 in0.0 mm 1.07 in27.2 mm
11:10 PM 58.3°F14.6°C 58.3°F14.6°C 100% 6.5 mph SW10.5 kmh SW 10.7 mph17.2 kmh 28.89 in978.3 mb 0.00 in0.0 mm 0.00 in0.0 mm 1.07 in27.2 mm
11:20 PM 58.3°F14.6°C 58.0°F14.4°C 99% 6.4 mph SW10.3 kmh SW 15.2 mph24.5 kmh 28.88 in978.0 mb 0.01 in0.3 mm 0.06 in1.5 mm 1.09 in27.7 mm
11:30 PM 58.5°F14.7°C 58.2°F14.6°C 99% 8.9 mph SSE14.3 kmh SSE 13.6 mph21.9 kmh 28.88 in978.0 mb 0.01 in0.3 mm 0.00 in0.0 mm 1.09 in27.7 mm
11:40 PM 58.6°F14.8°C 58.4°F14.7°C 99% 8.7 mph S14.0 kmh S 13.6 mph21.9 kmh 28.88 in978.0 mb 0.01 in0.3 mm 0.00 in0.0 mm 1.09 in27.7 mm
11:50 PM 58.6°F14.8°C 58.4°F14.7°C 99% 9.0 mph SW14.5 kmh SW 13.6 mph21.9 kmh 28.87 in977.7 mb 0.02 in0.5 mm 0.06 in1.5 mm 1.10 in27.9 mm